createdAt,value
2018-05-11T00:00:03.055Z,997.97
2018-05-11T00:01:13.152Z,998.04
2018-05-11T00:02:23.252Z,998.06
2018-05-11T00:03:33.063Z,998.05
2018-05-11T00:04:43.145Z,998.07
2018-05-11T00:05:53.229Z,998.04
2018-05-11T00:07:03.127Z,998.08
2018-05-11T00:08:13.209Z,998.06
2018-05-11T00:09:23.289Z,998.1
2018-05-11T00:10:33.371Z,998.12
2018-05-11T00:11:43.594Z,998.1
2018-05-11T00:12:53.874Z,998.11
2018-05-11T00:14:03.952Z,998.12
2018-05-11T00:15:14.038Z,998.11
2018-05-11T00:16:24.116Z,998.09
2018-05-11T00:17:34.201Z,998.09
2018-05-11T00:18:44.315Z,998.07
2018-05-11T00:19:54.128Z,998.06
2018-05-11T00:21:03.937Z,998.06
2018-05-11T00:22:13.742Z,998.03
2018-05-11T00:23:23.870Z,998
2018-05-11T00:24:34.239Z,998
2018-05-11T00:25:44.351Z,997.97
2018-05-11T00:26:54.433Z,998.03
2018-05-11T00:28:03.988Z,998.05
2018-05-11T00:29:14.065Z,998.05
2018-05-11T00:30:24.196Z,998.09
2018-05-11T00:31:34.029Z,998.09
2018-05-11T00:32:44.106Z,998.07
2018-05-11T00:33:54.198Z,998.06
2018-05-11T00:35:04.291Z,998.08
2018-05-11T00:36:14.367Z,998.05
2018-05-11T00:37:24.184Z,998.04
2018-05-11T00:38:34.275Z,998.05
2018-05-11T00:39:44.102Z,998
2018-05-11T00:40:54.177Z,998.02
2018-05-11T00:42:04.314Z,998.03
2018-05-11T00:43:14.378Z,998.04
2018-05-11T00:44:23.924Z,998.04
2018-05-11T00:45:34.006Z,998.04
2018-05-11T00:46:43.813Z,998.01
2018-05-11T00:47:53.903Z,998.05
2018-05-11T00:49:03.976Z,998.04
2018-05-11T00:50:13.796Z,998.07
2018-05-11T00:51:23.609Z,998.04
2018-05-11T00:52:33.690Z,998.02
2018-05-11T00:53:43.794Z,998.02
2018-05-11T00:54:53.851Z,998.03
2018-05-11T00:56:03.937Z,998
2018-05-11T00:57:14.018Z,998.02
2018-05-11T00:58:24.089Z,997.97
2018-05-11T00:59:34.175Z,998.01
2018-05-11T01:00:44.286Z,997.98
2018-05-11T01:01:54.375Z,997.97
2018-05-11T01:03:04.458Z,998
2018-05-11T01:04:14.566Z,997.94
2018-05-11T01:05:24.698Z,997.94
2018-05-11T01:06:34.501Z,997.93
2018-05-11T01:07:44.572Z,997.92
2018-05-11T01:08:54.651Z,997.95
2018-05-11T01:10:04.210Z,997.94
2018-05-11T01:11:14.288Z,997.94
2018-05-11T01:12:24.376Z,997.96
2018-05-11T01:13:33.952Z,997.9
2018-05-11T01:14:43.504Z,997.94
2018-05-11T01:15:53.607Z,997.93
2018-05-11T01:17:03.715Z,997.94
2018-05-11T01:18:13.818Z,997.93
2018-05-11T01:19:23.892Z,997.97
2018-05-11T01:20:34.056Z,997.97
2018-05-11T01:21:44.147Z,997.97
2018-05-11T01:22:54.246Z,997.89
2018-05-11T01:24:03.803Z,997.93
2018-05-11T01:25:13.878Z,997.91
2018-05-11T01:26:23.955Z,997.95
2018-05-11T01:27:33.783Z,997.97
2018-05-11T01:28:43.864Z,997.96
2018-05-11T01:29:53.942Z,997.93
2018-05-11T01:31:04.023Z,997.91
2018-05-11T01:32:13.865Z,997.88
2018-05-11T01:33:23.683Z,997.87
2018-05-11T01:34:33.798Z,997.86
2018-05-11T01:35:43.884Z,997.81
2018-05-11T01:36:53.956Z,997.78
2018-05-11T01:38:04.030Z,997.8
2018-05-11T01:39:14.115Z,997.77
2018-05-11T01:40:24.251Z,997.78
2018-05-11T01:41:34.313Z,997.76
2018-05-11T01:42:44.141Z,997.75
2018-05-11T01:43:53.708Z,997.73
2018-05-11T01:45:03.569Z,997.77
2018-05-11T01:46:13.425Z,997.7
2018-05-11T01:47:23.605Z,997.73
2018-05-11T01:48:33.406Z,997.74
2018-05-11T01:49:43.485Z,997.72
2018-05-11T01:50:53.557Z,997.7
2018-05-11T01:52:03.639Z,997.71
2018-05-11T01:53:13.470Z,997.73
2018-05-11T01:54:23.279Z,997.75
2018-05-11T01:55:33.345Z,997.73
2018-05-11T01:56:43.432Z,997.74
2018-05-11T01:57:53.512Z,997.74
2018-05-11T01:59:03.062Z,997.74
2018-05-11T02:00:13.205Z,997.73
2018-05-11T02:01:22.779Z,997.71
2018-05-11T02:02:32.862Z,997.69
2018-05-11T02:03:42.937Z,997.69
2018-05-11T02:04:52.742Z,997.69
2018-05-11T02:06:02.836Z,997.67
2018-05-11T02:07:12.928Z,997.67
2018-05-11T02:08:23.003Z,997.68
2018-05-11T02:09:33.130Z,997.65
2018-05-11T02:10:43.216Z,997.65
2018-05-11T02:11:53.333Z,997.59
2018-05-11T02:13:02.895Z,997.63
2018-05-11T02:14:12.703Z,997.59
2018-05-11T02:15:22.794Z,997.62
2018-05-11T02:16:32.624Z,997.57
2018-05-11T02:17:42.711Z,997.6
2018-05-11T02:18:52.773Z,997.57
2018-05-11T02:20:02.577Z,997.55
2018-05-11T02:21:12.693Z,997.57
2018-05-11T02:22:22.504Z,997.53
2018-05-11T02:23:32.310Z,997.6
2018-05-11T02:24:42.400Z,997.58
2018-05-11T02:25:52.581Z,997.56
2018-05-11T02:27:03.261Z,997.56
2018-05-11T02:28:13.347Z,997.57
2018-05-11T02:29:23.440Z,997.58
2018-05-11T02:30:33.533Z,997.59
2018-05-11T02:31:43.621Z,997.6
2018-05-11T02:32:53.742Z,997.56
2018-05-11T02:34:03.828Z,997.64
2018-05-11T02:35:13.915Z,997.65
2018-05-11T02:36:23.874Z,997.65
2018-05-11T02:37:33.978Z,997.68
2018-05-11T02:38:44.057Z,997.68
2018-05-11T02:39:53.882Z,997.7
2018-05-11T02:41:03.989Z,997.71
2018-05-11T02:42:14.324Z,997.7
2018-05-11T02:43:24.425Z,997.75
2018-05-11T02:44:34.517Z,997.72
2018-05-11T02:45:44.660Z,997.74
2018-05-11T02:46:54.556Z,997.75
2018-05-11T02:48:04.381Z,997.77
2018-05-11T02:49:14.463Z,997.76
2018-05-11T02:50:24.601Z,997.77
2018-05-11T02:51:34.731Z,997.79
2018-05-11T02:52:44.277Z,997.85
2018-05-11T02:53:54.358Z,997.86
2018-05-11T02:55:04.441Z,997.82
2018-05-11T02:56:14.586Z,997.85
2018-05-11T02:57:24.673Z,997.89
2018-05-11T02:58:34.761Z,997.88
2018-05-11T02:59:44.320Z,997.87
2018-05-11T03:00:54.424Z,997.91
2018-05-11T03:02:04.508Z,997.92
2018-05-11T03:34:44.655Z,998.25
2018-05-11T03:35:54.460Z,998.27
2018-05-11T03:37:04.275Z,998.23
2018-05-11T03:38:13.830Z,998.23
2018-05-11T03:39:23.897Z,998.3
2018-05-11T03:40:33.975Z,998.24
2018-05-11T03:41:44.060Z,998.27
2018-05-11T03:42:53.859Z,998.3
2018-05-11T03:44:03.924Z,998.29
2018-05-11T03:45:13.993Z,998.33
2018-05-11T03:46:24.054Z,998.34
2018-05-11T03:47:34.145Z,998.37
2018-05-11T03:48:44.230Z,998.38
2018-05-11T03:49:54.342Z,998.41
2018-05-11T03:51:04.410Z,998.4
2018-05-11T03:52:14.224Z,998.43
2018-05-11T03:53:24.030Z,998.47
2018-05-11T03:54:33.582Z,998.51
2018-05-11T03:55:43.415Z,998.6
2018-05-11T03:56:53.499Z,998.57
2018-05-11T03:58:03.612Z,998.5
2018-05-11T03:59:13.692Z,998.58
2018-05-11T04:00:23.769Z,998.52
2018-05-11T04:01:33.843Z,998.52
2018-05-11T04:02:43.667Z,998.56
2018-05-11T04:03:53.755Z,998.55
2018-05-11T04:05:03.847Z,998.54
2018-05-11T04:06:13.669Z,998.55
2018-05-11T04:07:23.495Z,998.55
2018-05-11T04:08:33.592Z,998.56
2018-05-11T04:09:43.416Z,998.55
2018-05-11T04:10:53.226Z,998.63
2018-05-11T04:12:03.293Z,998.62
2018-05-11T04:13:13.454Z,998.62
2018-05-11T04:14:23.360Z,998.7
2018-05-11T04:15:33.219Z,998.7
2018-05-11T04:16:43.038Z,998.71
2018-05-11T04:17:53.134Z,998.7
2018-05-11T04:19:03.204Z,998.72
2018-05-11T04:20:13.016Z,998.76
2018-05-11T04:21:22.830Z,998.78
2018-05-11T04:22:32.921Z,998.84
2018-05-11T04:23:42.994Z,998.85
2018-05-11T04:24:53.118Z,998.83
2018-05-11T04:26:02.970Z,998.83
2018-05-11T04:27:13.079Z,998.89
2018-05-11T04:28:23.145Z,998.84
2018-05-11T04:29:32.975Z,998.88
2018-05-11T04:30:42.772Z,998.89
2018-05-11T04:31:52.850Z,998.92
2018-05-11T04:33:02.944Z,998.88
2018-05-11T04:34:13.090Z,998.93
2018-05-11T04:35:22.916Z,999.02
2018-05-11T04:36:32.991Z,999.06
2018-05-11T04:37:43.093Z,999.1
2018-05-11T04:38:52.939Z,999.1
2018-05-11T04:40:03.037Z,999.13
2018-05-11T04:41:13.126Z,999.14
2018-05-11T04:42:22.948Z,999.17
2018-05-11T04:43:32.769Z,999.24
2018-05-11T04:44:42.599Z,999.37
2018-05-11T04:45:52.689Z,999.55
2018-05-11T04:47:02.781Z,999.74
2018-05-11T04:48:12.875Z,999.82
2018-05-11T04:49:22.957Z,999.83
2018-05-11T04:50:32.770Z,999.81
2018-05-11T04:51:42.874Z,999.76
2018-05-11T04:52:52.947Z,999.81
2018-05-11T04:54:02.770Z,999.79
2018-05-11T04:55:12.836Z,999.78
2018-05-11T04:56:22.646Z,999.81
2018-05-11T04:57:32.721Z,999.78
2018-05-11T04:58:42.797Z,999.89
2018-05-11T04:59:52.863Z,999.95
2018-05-11T05:01:02.699Z,999.91
2018-05-11T05:02:12.788Z,999.91
2018-05-11T05:03:22.903Z,999.98
2018-05-11T05:04:33.083Z,1000.25
2018-05-11T05:05:43.207Z,1000.46
2018-05-11T05:06:53.024Z,1000.24
2018-05-11T05:08:02.889Z,1000.27
2018-05-11T05:09:12.965Z,1000.39
2018-05-11T05:10:22.513Z,1000.27
2018-05-11T05:11:33.096Z,1000.18
2018-05-11T05:12:43.183Z,1000.3
2018-05-11T05:13:53.268Z,1000.27
2018-05-11T05:15:03.357Z,1000.35
2018-05-11T05:16:13.167Z,1000.31
2018-05-11T05:17:23.005Z,1000.04
2018-05-11T05:18:33.092Z,999.97
2018-05-11T05:19:43.224Z,1000.01
2018-05-11T05:20:53.044Z,999.93
2018-05-11T05:22:02.863Z,999.97
2018-05-11T05:23:12.680Z,999.92
2018-05-11T05:24:22.509Z,999.91
2018-05-11T05:25:32.080Z,999.91
2018-05-11T05:26:42.197Z,999.93
2018-05-11T05:27:51.758Z,999.94
2018-05-11T05:29:01.927Z,999.99
2018-05-11T05:30:12.027Z,999.98
2018-05-11T05:31:21.639Z,1000.02
2018-05-11T05:32:31.720Z,1000.02
2018-05-11T05:33:41.553Z,1000.05
2018-05-11T05:34:51.628Z,1000.06
2018-05-11T05:36:01.463Z,1000.14
2018-05-11T05:37:11.551Z,1000.14
2018-05-11T05:38:21.630Z,1000.13
2018-05-11T05:39:31.437Z,1000.14
2018-05-11T05:40:41.524Z,1000.15
2018-05-11T05:41:51.633Z,1000.19
2018-05-11T05:43:01.739Z,1000.17
2018-05-11T05:44:11.841Z,1000.18
2018-05-11T05:45:21.936Z,1000.25
2018-05-11T05:46:32.014Z,1000.17
2018-05-11T05:47:41.848Z,1000.26
2018-05-11T05:48:51.671Z,1000.28
2018-05-11T05:50:01.762Z,1000.3
2018-05-11T05:51:11.841Z,1000.29
2018-05-11T05:52:21.938Z,1000.35
2018-05-11T05:53:31.764Z,1000.38
2018-05-11T05:54:41.584Z,1000.32
2018-05-11T05:55:51.142Z,1000.4
2018-05-11T05:57:00.985Z,1000.43
2018-05-11T05:58:11.064Z,1000.44
2018-05-11T05:59:20.892Z,1000.44
2018-05-11T06:00:30.708Z,1000.43
2018-05-11T06:01:40.800Z,1000.45
2018-05-11T06:02:50.896Z,1000.51
2018-05-11T06:04:00.980Z,1000.52
2018-05-11T06:05:11.075Z,1000.49
2018-05-11T06:06:20.937Z,1000.49
2018-05-11T06:07:31.026Z,1000.49
2018-05-11T06:08:41.116Z,1000.51
2018-05-11T06:09:50.930Z,1000.47
2018-05-11T06:11:00.491Z,1000.45
2018-05-11T06:12:10.309Z,1000.46
2018-05-11T06:13:20.148Z,1000.48
2018-05-11T06:14:29.949Z,1000.5
2018-05-11T06:15:39.831Z,1000.45
2018-05-11T06:16:49.858Z,1000.44
2018-05-11T06:17:59.990Z,1000.44
2018-05-11T06:19:10.068Z,1000.42
2018-05-11T06:20:19.881Z,1000.39
2018-05-11T06:21:29.956Z,1000.36
2018-05-11T06:22:39.518Z,1000.45
2018-05-11T06:23:49.329Z,1000.35
2018-05-11T06:24:59.415Z,1000.37
2018-05-11T06:26:09.281Z,1000.44
2018-05-11T06:27:19.363Z,1000.39
2018-05-11T06:28:29.545Z,1000.4
2018-05-11T06:29:39.682Z,1000.39
2018-05-11T06:30:49.519Z,1000.4
2018-05-11T06:31:59.341Z,1000.43
2018-05-11T06:33:09.433Z,1000.42
2018-05-11T06:34:19.520Z,1000.43
2018-05-11T06:35:29.815Z,1000.46
2018-05-11T06:36:39.913Z,1000.54
2018-05-11T06:37:49.998Z,1000.44
2018-05-11T06:38:59.812Z,1000.47
2018-05-11T06:40:09.902Z,1000.47
2018-05-11T06:41:20.030Z,1000.51
2018-05-11T06:42:30.114Z,1000.47
2018-05-11T06:43:40.198Z,1000.47
2018-05-11T06:44:50.436Z,1000.49
2018-05-11T06:46:00.289Z,1000.41
2018-05-11T06:47:10.440Z,1000.51
2018-05-11T06:48:20.552Z,1000.35
2018-05-11T06:49:30.370Z,1000.4
2018-05-11T06:50:40.440Z,1000.42
2018-05-11T06:51:50.252Z,1000.36
2018-05-11T06:53:00.360Z,1000.35
2018-05-11T06:54:10.457Z,1000.42
2018-05-11T06:55:20.548Z,1000.44
2018-05-11T06:56:30.653Z,1000.48
2018-05-11T06:57:40.834Z,1000.46
2018-05-11T06:58:50.693Z,1000.52
2018-05-11T07:00:00.773Z,1000.43
2018-05-11T07:01:10.584Z,1000.48
2018-05-11T07:02:20.681Z,1000.54
2018-05-11T07:03:30.784Z,1000.56
2018-05-11T07:04:40.868Z,1000.48
2018-05-11T07:05:50.965Z,1000.57
2018-05-11T07:07:01.060Z,1000.59
2018-05-11T07:08:11.163Z,1000.59
2018-05-11T07:09:21.247Z,1000.57
2018-05-11T07:10:31.076Z,1000.6
2018-05-11T07:11:40.894Z,1000.64
2018-05-11T07:12:50.978Z,1000.55
2018-05-11T07:14:01.051Z,1000.69
2018-05-11T07:15:11.127Z,1000.62
2018-05-11T07:16:21.213Z,1000.63
2018-05-11T07:17:31.295Z,1000.66
2018-05-11T07:18:41.092Z,1000.63
2018-05-11T07:19:51.201Z,1000.63
2018-05-11T07:21:01.293Z,1000.63
2018-05-11T07:22:11.367Z,1000.6
2018-05-11T07:23:21.433Z,1000.7
2018-05-11T07:24:31.521Z,1000.65
2018-05-11T07:25:41.364Z,1000.71
2018-05-11T07:26:51.824Z,1000.7
2018-05-11T07:28:01.657Z,1000.79
2018-05-11T07:29:11.485Z,1000.78
2018-05-11T07:30:21.143Z,1000.85
2018-05-11T07:31:30.971Z,1000.8
2018-05-11T07:32:40.536Z,1000.8
2018-05-11T07:33:50.686Z,1000.74
2018-05-11T07:35:00.516Z,1000.78
2018-05-11T07:36:10.796Z,1000.73
2018-05-11T07:37:20.617Z,1000.75
2018-05-11T07:38:30.426Z,1000.84
2018-05-11T07:39:40.574Z,1000.79
2018-05-11T07:40:50.662Z,1000.85
2018-05-11T07:42:00.751Z,1000.77
2018-05-11T07:43:10.702Z,1000.78
2018-05-11T07:44:20.881Z,1000.86
2018-05-11T07:45:30.708Z,1000.76
2018-05-11T07:46:40.260Z,1000.72
2018-05-11T07:47:50.363Z,1000.71
2018-05-11T07:49:00.175Z,1000.83
2018-05-11T07:50:10.279Z,1000.77
2018-05-11T07:51:20.426Z,1000.82
2018-05-11T07:52:30.654Z,1000.78
2018-05-11T07:53:40.213Z,1000.72
2018-05-11T07:54:50.292Z,1000.78
2018-05-11T07:55:59.858Z,1000.74
2018-05-11T07:57:09.726Z,1000.75
2018-05-11T07:58:19.548Z,1000.78
2018-05-11T07:59:29.645Z,1000.77
2018-05-11T08:00:39.733Z,1000.82
2018-05-11T08:01:49.851Z,1000.76
2018-05-11T08:02:59.940Z,1000.78
2018-05-11T08:04:10.037Z,1000.74
2018-05-11T08:05:20.141Z,1000.75
2018-05-11T08:06:29.957Z,1000.73
2018-05-11T08:07:40.024Z,1000.84
2018-05-11T08:08:49.890Z,1000.82
2018-05-11T08:09:59.696Z,1000.82
2018-05-11T08:11:09.781Z,1000.89
2018-05-11T08:12:19.589Z,1000.79
2018-05-11T08:13:29.752Z,1000.87
2018-05-11T08:14:39.873Z,1000.88
2018-05-11T08:15:49.954Z,1000.88
2018-05-11T08:16:59.768Z,1000.82
2018-05-11T08:18:09.606Z,1000.8
2018-05-11T08:19:19.685Z,1000.9
2018-05-11T08:20:29.249Z,1000.89
2018-05-11T08:21:39.339Z,1000.86
2018-05-11T08:22:49.278Z,1000.86
2018-05-11T08:23:59.352Z,1000.87
2018-05-11T08:25:09.453Z,1000.84
2018-05-11T08:26:19.289Z,1000.87
2018-05-11T08:27:29.366Z,1000.85
2018-05-11T08:28:39.448Z,1000.91
2018-05-11T08:29:49.543Z,1000.94
2018-05-11T08:30:59.630Z,1000.97
2018-05-11T08:32:09.453Z,1000.96
2018-05-11T08:33:19.004Z,1000.92
2018-05-11T08:34:29.091Z,1000.94
2018-05-11T08:35:38.904Z,1000.93
2018-05-11T08:36:49.255Z,1000.95
2018-05-11T08:37:58.821Z,1001
2018-05-11T08:39:08.425Z,1000.98
2018-05-11T08:40:18.265Z,1000.95
2018-05-11T08:41:28.109Z,1000.95
2018-05-11T08:42:38.191Z,1000.95
2018-05-11T08:43:48.273Z,1001.01
2018-05-11T08:44:58.451Z,1000.96
2018-05-11T08:46:08.543Z,1001
2018-05-11T08:47:18.678Z,1000.97
2018-05-11T08:48:28.759Z,1001
2018-05-11T08:49:38.830Z,1001.02
2018-05-11T08:50:48.928Z,1001.06
2018-05-11T08:51:59.075Z,1001.06
2018-05-11T08:53:09.149Z,1001.04
2018-05-11T08:54:19.252Z,1001.01
2018-05-11T08:55:29.339Z,1001.06
2018-05-11T08:56:39.487Z,1001.07
2018-05-11T08:57:49.311Z,1000.98
2018-05-11T08:58:58.628Z,1001.02
2018-05-11T09:00:08.724Z,1001
2018-05-11T09:01:18.567Z,1001.03
2018-05-11T09:02:28.665Z,1001.04
2018-05-11T09:03:38.737Z,1001.03
2018-05-11T09:04:48.588Z,1000.98
2018-05-11T09:05:58.685Z,1000.96
2018-05-11T09:07:08.760Z,1001.01
2018-05-11T09:08:18.850Z,1000.95
2018-05-11T09:09:28.976Z,1000.98
2018-05-11T09:10:38.809Z,1000.96
2018-05-11T09:11:48.908Z,1001
2018-05-11T09:12:59.005Z,1000.95
2018-05-11T09:14:09.103Z,1000.96
2018-05-11T09:15:19.214Z,1000.96
2018-05-11T09:16:28.784Z,1000.96
2018-05-11T09:17:38.637Z,1000.96
2018-05-11T09:18:48.725Z,1000.93
2018-05-11T09:19:58.810Z,1001.04
2018-05-11T09:21:08.902Z,1000.99
2018-05-11T09:22:18.543Z,1000.95
2018-05-11T09:23:28.624Z,1000.98
2018-05-11T09:24:38.731Z,1000.95
2018-05-11T09:25:48.819Z,1000.98
2018-05-11T09:26:58.901Z,1000.96
2018-05-11T09:28:08.736Z,1000.95
2018-05-11T09:29:18.819Z,1000.95
2018-05-11T09:30:28.637Z,1000.89
2018-05-11T09:31:38.460Z,1000.87
2018-05-11T09:32:48.822Z,1000.79
2018-05-11T09:33:58.924Z,1000.86
2018-05-11T09:35:09.011Z,1000.83
2018-05-11T09:36:18.829Z,1000.89
2018-05-11T09:37:28.902Z,1000.82
2018-05-11T09:38:38.728Z,1000.82
2018-05-11T09:39:48.878Z,1000.89
2018-05-11T09:40:59.472Z,1000.81
2018-05-11T09:42:09.564Z,1000.81
2018-05-11T09:43:19.661Z,1000.81
2018-05-11T09:44:29.743Z,1000.76
2018-05-11T09:45:39.828Z,1000.78
2018-05-11T09:46:49.965Z,1000.78
2018-05-11T09:48:00.051Z,1000.78
2018-05-11T09:49:10.148Z,1000.86
2018-05-11T09:50:20.320Z,1000.77
2018-05-11T09:51:30.169Z,1000.84
2018-05-11T09:52:40.039Z,1000.82
2018-05-11T09:53:49.871Z,1000.79
2018-05-11T09:55:00.009Z,1000.78
2018-05-11T09:56:10.308Z,1000.76
2018-05-11T09:57:20.385Z,1000.74
2018-05-11T09:58:30.463Z,1000.81
2018-05-11T09:59:40.021Z,1000.76
2018-05-11T10:00:49.899Z,1000.78
2018-05-11T10:02:00.259Z,1000.77
2018-05-11T10:03:10.336Z,1000.81
2018-05-11T10:04:20.405Z,1000.76
2018-05-11T10:05:30.241Z,1000.79
2018-05-11T10:06:40.321Z,1000.78
2018-05-11T10:07:50.443Z,1000.76
2018-05-11T10:09:00.376Z,1000.73
2018-05-11T10:10:10.256Z,1000.72
2018-05-11T10:11:20.067Z,1000.73
2018-05-11T10:12:30.152Z,1000.7
2018-05-11T10:13:40.238Z,1000.73
2018-05-11T10:14:50.606Z,1000.78
2018-05-11T10:16:00.525Z,1000.75
2018-05-11T10:17:10.344Z,1000.77
2018-05-11T10:18:20.441Z,1000.71
2018-05-11T10:19:30.528Z,1000.73
2018-05-11T10:20:40.121Z,1000.71
2018-05-11T10:21:50.460Z,1000.71
2018-05-11T10:23:00.551Z,1000.7
2018-05-11T10:24:10.384Z,1000.76
2018-05-11T10:25:20.471Z,1000.73
2018-05-11T10:26:30.564Z,1000.73
2018-05-11T10:27:40.384Z,1000.71
2018-05-11T10:28:50.266Z,1000.75
2018-05-11T10:30:00.526Z,1000.73
2018-05-11T10:31:10.632Z,1000.72
2018-05-11T10:32:20.725Z,1000.73
2018-05-11T10:33:30.603Z,1000.71
2018-05-11T10:34:40.691Z,1000.73
2018-05-11T10:35:50.789Z,1000.74
2018-05-11T10:37:00.887Z,1000.7
2018-05-11T10:38:10.722Z,1000.7
2018-05-11T10:39:20.867Z,1000.72
2018-05-11T10:40:30.953Z,1000.77
2018-05-11T10:41:41.057Z,1000.76
2018-05-11T10:42:51.167Z,1000.76
2018-05-11T10:44:01.002Z,1000.78
2018-05-11T10:45:11.101Z,1000.81
2018-05-11T10:46:21.226Z,1000.76
2018-05-11T10:47:31.563Z,1000.77
2018-05-11T10:48:41.717Z,1000.77
2018-05-11T10:49:52.286Z,1000.75
2018-05-11T10:51:02.457Z,1000.7
2018-05-11T10:52:12.573Z,1000.68
2018-05-11T10:53:22.654Z,1000.69
2018-05-11T10:54:32.511Z,1000.69
2018-05-11T10:55:42.589Z,1000.71
2018-05-11T10:56:52.721Z,1000.72
2018-05-11T10:58:02.789Z,1000.75
2018-05-11T10:59:12.629Z,1000.67
2018-05-11T11:00:22.716Z,1000.67
2018-05-11T11:01:32.547Z,1000.67
2018-05-11T11:02:42.729Z,1000.64
2018-05-11T11:03:52.560Z,1000.64
2018-05-11T11:05:02.384Z,1000.65
2018-05-11T11:06:12.476Z,1000.64
2018-05-11T11:07:22.547Z,1000.63
2018-05-11T11:08:32.633Z,1000.62
2018-05-11T11:09:42.744Z,1000.61
2018-05-11T11:10:52.585Z,1000.52
2018-05-11T11:12:02.672Z,1000.52
2018-05-11T11:13:12.495Z,1000.5
2018-05-11T11:14:22.312Z,1000.49
2018-05-11T11:15:32.473Z,1000.52
2018-05-11T11:16:42.563Z,1000.55
2018-05-11T11:17:52.634Z,1000.47
2018-05-11T11:19:02.720Z,1000.41
2018-05-11T11:20:12.860Z,1000.39
2018-05-11T11:21:22.980Z,1000.45
2018-05-11T11:22:33.304Z,1000.45
2018-05-11T11:23:43.406Z,1000.43
2018-05-11T11:24:53.485Z,1000.43
2018-05-11T11:26:03.728Z,1000.46
2018-05-11T11:27:13.951Z,1000.42
2018-05-11T11:28:23.779Z,1000.44
2018-05-11T11:29:33.877Z,1000.35
2018-05-11T11:30:43.986Z,1000.4
2018-05-11T11:31:54.102Z,1000.41
2018-05-11T11:33:04.233Z,1000.31
2018-05-11T11:34:14.343Z,1000.34
2018-05-11T11:35:24.672Z,1000.28
2018-05-11T11:36:34.775Z,1000.31
2018-05-11T11:37:44.887Z,1000.29
2018-05-11T11:38:55.011Z,1000.26
2018-05-11T11:40:05.120Z,1000.26
2018-05-11T11:41:15.217Z,1000.24
2018-05-11T11:42:25.318Z,1000.14
2018-05-11T11:43:35.144Z,1000.26
2018-05-11T11:44:44.979Z,1000.21
2018-05-11T11:45:55.077Z,1000.29
2018-05-11T11:47:04.939Z,1000.17
2018-05-11T11:48:15.050Z,1000.17
2018-05-11T11:49:24.884Z,1000.14
2018-05-11T11:50:34.717Z,1000.14
2018-05-11T11:51:44.807Z,1000.14
2018-05-11T11:52:55.001Z,1000.12
2018-05-11T11:54:05.109Z,1000.1
2018-05-11T11:55:15.287Z,1000.09
2018-05-11T11:56:25.406Z,1000.09
2018-05-11T11:57:35.839Z,1000.02
2018-05-11T11:58:45.949Z,1000.14
2018-05-11T11:59:55.867Z,1000.08
2018-05-11T12:01:05.849Z,1000.1
2018-05-11T12:02:15.679Z,1000.04
2018-05-11T12:03:25.759Z,1000.08
2018-05-11T12:04:35.862Z,1000.01
2018-05-11T12:05:45.960Z,1000.09
2018-05-11T12:06:56.075Z,999.97
2018-05-11T12:08:05.921Z,999.99
2018-05-11T12:09:16.012Z,1000.05
2018-05-11T12:10:26.142Z,999.97
2018-05-11T12:11:35.982Z,999.95
2018-05-11T12:12:46.544Z,999.9
2018-05-11T12:13:56.648Z,999.96
2018-05-11T12:15:06.757Z,999.94
2018-05-11T12:16:16.588Z,999.87
2018-05-11T12:17:26.686Z,999.91
2018-05-11T12:18:36.771Z,999.85
2018-05-11T12:19:46.866Z,999.85
2018-05-11T12:20:56.984Z,999.81
2018-05-11T12:22:06.917Z,999.86
2018-05-11T12:31:30.414Z,999.66
2018-05-11T12:32:40.523Z,999.67
2018-05-11T12:33:50.357Z,999.72
2018-05-11T12:35:00.504Z,999.63
2018-05-11T12:36:10.352Z,999.66
2018-05-11T12:37:20.489Z,999.61
2018-05-11T12:38:30.328Z,999.65
2018-05-11T12:39:40.444Z,999.63
2018-05-11T12:40:51.289Z,999.62
2018-05-11T12:42:01.751Z,999.57
2018-05-11T12:43:12.469Z,999.55
2018-05-11T12:44:22.596Z,999.54
2018-05-11T12:45:32.953Z,999.53
2018-05-11T12:46:43.631Z,999.51
2018-05-11T12:47:54.233Z,999.53
2018-05-11T12:49:04.687Z,999.53
2018-05-11T12:50:14.931Z,999.46
2018-05-11T12:51:25.306Z,999.41
2018-05-11T12:52:35.456Z,999.41
2018-05-11T12:53:46.232Z,999.42
2018-05-11T12:54:56.931Z,999.35
2018-05-11T12:56:07.517Z,999.34
2018-05-11T12:57:18.121Z,999.3
2018-05-11T12:58:28.956Z,999.31
2018-05-11T12:59:39.640Z,999.38
2018-05-11T13:00:49.829Z,999.33
2018-05-11T13:01:59.965Z,999.32
2018-05-11T13:03:10.326Z,999.28
2018-05-11T13:04:20.427Z,999.32
2018-05-11T13:05:30.518Z,999.3
2018-05-11T13:06:40.649Z,999.31
2018-05-11T13:07:50.833Z,999.32
2018-05-11T13:09:00.960Z,999.26
2018-05-11T13:10:11.068Z,999.25
2018-05-11T13:11:21.175Z,999.25
2018-05-11T13:12:31.315Z,999.21
2018-05-11T13:13:41.164Z,999.21
2018-05-11T13:14:50.991Z,999.23
2018-05-11T13:16:00.822Z,999.17
2018-05-11T13:17:10.661Z,999.13
2018-05-11T13:18:21.034Z,999.15
2018-05-11T13:19:30.867Z,999.14
2018-05-11T13:20:40.709Z,999.13
2018-05-11T13:21:51.213Z,999.13
2018-05-11T13:23:01.499Z,999.07
2018-05-11T13:24:11.126Z,998.99
2018-05-11T13:25:21.240Z,999.01
2018-05-11T13:26:31.340Z,998.96
2018-05-11T13:27:41.162Z,998.99
2018-05-11T13:28:50.994Z,999.03
2018-05-11T13:30:00.827Z,999.03
2018-05-11T13:31:10.975Z,999.03
2018-05-11T13:32:21.067Z,999.03
2018-05-11T13:33:31.173Z,999
2018-05-11T13:34:41.274Z,998.95
2018-05-11T13:35:51.353Z,998.95
2018-05-11T13:37:01.460Z,998.93
2018-05-11T13:38:11.297Z,998.88
2018-05-11T13:39:21.398Z,998.85
2018-05-11T13:40:31.517Z,998.85
2018-05-11T13:41:41.342Z,998.83
2018-05-11T13:42:51.468Z,998.82
2018-05-11T13:44:01.578Z,998.86
2018-05-11T13:45:11.658Z,998.85
2018-05-11T13:46:21.788Z,998.81
2018-05-11T13:47:31.879Z,998.8
2018-05-11T13:48:41.974Z,998.79
2018-05-11T13:49:52.094Z,998.78
2018-05-11T13:51:02.194Z,998.72
2018-05-11T13:52:12.313Z,998.72
2018-05-11T13:53:22.138Z,998.71
2018-05-11T13:54:31.970Z,998.71
2018-05-11T13:55:41.807Z,998.68
2018-05-11T13:56:51.622Z,998.67
2018-05-11T13:58:01.730Z,998.68
2018-05-11T13:59:11.563Z,998.67
2018-05-11T14:00:21.680Z,998.67
2018-05-11T14:01:31.765Z,998.68
2018-05-11T14:02:41.604Z,998.71
2018-05-11T14:03:51.686Z,998.69
2018-05-11T14:05:01.844Z,998.67
2018-05-11T14:06:11.937Z,998.7
2018-05-11T14:07:21.771Z,998.66
2018-05-11T14:08:31.621Z,998.68
2018-05-11T14:09:41.450Z,998.61
2018-05-11T14:10:51.411Z,998.62
2018-05-11T14:12:01.590Z,998.59
2018-05-11T14:13:11.690Z,998.56
2018-05-11T14:14:21.770Z,998.53
2018-05-11T14:15:31.872Z,998.49
2018-05-11T14:16:42.012Z,998.48
2018-05-11T14:17:52.175Z,998.46
2018-05-11T14:19:02.511Z,998.43
2018-05-11T14:20:12.626Z,998.41
2018-05-11T14:21:22.712Z,998.44
2018-05-11T14:22:32.853Z,998.43
2018-05-11T14:23:42.980Z,998.44
2018-05-11T14:24:53.087Z,998.4
2018-05-11T14:26:03.708Z,998.44
2018-05-11T14:27:13.800Z,998.44
2018-05-11T14:28:23.918Z,998.45
2018-05-11T14:29:33.757Z,998.51
2018-05-11T14:30:43.855Z,998.46
2018-05-11T14:31:54.020Z,998.44
2018-05-11T14:33:04.113Z,998.44
2018-05-11T14:34:14.206Z,998.42
2018-05-11T14:35:24.031Z,998.4
2018-05-11T14:36:34.191Z,998.46
2018-05-11T14:37:44.305Z,998.44
2018-05-11T14:38:54.392Z,998.42
2018-05-11T14:40:04.503Z,998.44
2018-05-11T14:41:14.332Z,998.5
2018-05-11T14:42:24.412Z,998.48
2018-05-11T14:43:34.546Z,998.48
2018-05-11T14:44:44.638Z,998.49
2018-05-11T14:45:54.770Z,998.48
2018-05-11T14:47:04.866Z,998.47
2018-05-11T14:48:14.987Z,998.48
2018-05-11T14:49:25.108Z,998.46
2018-05-11T14:50:35.325Z,998.4
2018-05-11T14:51:45.472Z,998.4
2018-05-11T14:52:55.584Z,998.41
2018-05-11T14:54:05.705Z,998.42
2018-05-11T14:55:15.541Z,998.41
2018-05-11T14:56:25.663Z,998.4
2018-05-11T14:57:35.808Z,998.37
2018-05-11T14:58:45.460Z,998.37
2018-05-11T14:59:55.792Z,998.34
2018-05-11T15:01:05.601Z,998.32
2018-05-11T15:02:15.424Z,998.34
2018-05-11T15:03:25.319Z,998.31